sensor_id;sensor_type;location;lat;lon;timestamp;temperature;humidity
15959;DHT22;8078;47.822;9.402;2024-01-15T00:02:18;-1.10;1.00
15959;DHT22;8078;47.822;9.402;2024-01-15T00:04:43;-1.20;1.00
15959;DHT22;8078;47.822;9.402;2024-01-15T00:07:09;-1.10;1.00
15959;DHT22;8078;47.822;9.402;2024-01-15T00:09:35;-1.20;1.00
15959;DHT22;8078;47.822;9.402;2024-01-15T00:12:01;-1.10;1.00
15959;DHT22;8078;47.822;9.402;2024-01-15T00:14:27;-1.10;1.00
15959;DHT22;8078;47.822;9.402;2024-01-15T00:16:53;-1.10;1.00
15959;DHT22;8078;47.822;9.402;2024-01-15T00:19:21;-1.10;1.00
15959;DHT22;8078;47.822;9.402;2024-01-15T00:21:47;-1.10;1.00
15959;DHT22;8078;47.822;9.402;2024-01-15T00:24:12;-1.10;1.00
15959;DHT22;8078;47.822;9.402;2024-01-15T00:26:38;-1.00;1.00
15959;DHT22;8078;47.822;9.402;2024-01-15T00:29:03;-1.00;1.00
15959;DHT22;8078;47.822;9.402;2024-01-15T00:31:30;-1.00;1.00
15959;DHT22;8078;47.822;9.402;2024-01-15T00:33:56;-1.10;1.00
15959;DHT22;8078;47.822;9.402;2024-01-15T00:36:21;-1.20;1.00
15959;DHT22;8078;47.822;9.402;2024-01-15T00:38:47;-1.10;1.00
15959;DHT22;8078;47.822;9.402;2024-01-15T00:41:13;-1.10;1.00
15959;DHT22;8078;47.822;9.402;2024-01-15T00:43:39;-1.10;1.00
15959;DHT22;8078;47.822;9.402;2024-01-15T00:46:05;-1.20;1.00
15959;DHT22;8078;47.822;9.402;2024-01-15T00:48:31;-1.20;1.00
15959;DHT22;8078;47.822;9.402;2024-01-15T00:50:56;-1.20;1.00
15959;DHT22;8078;47.822;9.402;2024-01-15T00:53:22;-1.30;1.00
15959;DHT22;8078;47.822;9.402;2024-01-15T00:55:51;-1.30;1.00
15959;DHT22;8078;47.822;9.402;2024-01-15T00:58:16;-1.30;1.00
15959;DHT22;8078;47.822;9.402;2024-01-15T01:00:42;-1.30;1.00
15959;DHT22;8078;47.822;9.402;2024-01-15T01:03:08;-1.40;1.00
15959;DHT22;8078;47.822;9.402;2024-01-15T01:05:34;-1.40;1.00
15959;DHT22;8078;47.822;9.402;2024-01-15T01:08:00;-1.40;1.00
15959;DHT22;8078;47.822;9.402;2024-01-15T01:10:25;-1.40;1.00
15959;DHT22;8078;47.822;9.402;2024-01-15T01:12:52;-1.40;1.00
15959;DHT22;8078;47.822;9.402;2024-01-15T01:15:17;-1.50;1.00
15959;DHT22;8078;47.822;9.402;2024-01-15T01:17:43;-1.50;1.00
15959;DHT22;8078;47.822;9.402;2024-01-15T01:20:09;-1.50;1.00
15959;DHT22;8078;47.822;9.402;2024-01-15T01:22:36;-1.50;1.00
15959;DHT22;8078;47.822;9.402;2024-01-15T01:25:01;-1.50;1.00
15959;DHT22;8078;47.822;9.402;2024-01-15T01:27:27;-1.50;1.00
15959;DHT22;8078;47.822;9.402;2024-01-15T01:29:52;-1.50;1.00
15959;DHT22;8078;47.822;9.402;2024-01-15T01:32:18;-1.60;1.00
15959;DHT22;8078;47.822;9.402;2024-01-15T01:34:44;-1.60;1.00
15959;DHT22;8078;47.822;9.402;2024-01-15T01:37:10;-1.60;1.00
15959;DHT22;8078;47.822;9.402;2024-01-15T01:39:39;-1.70;1.00
15959;DHT22;8078;47.822;9.402;2024-01-15T01:42:05;-1.80;1.00
15959;DHT22;8078;47.822;9.402;2024-01-15T01:44:31;-1.90;1.00
15959;DHT22;8078;47.822;9.402;2024-01-15T01:46:58;-2.00;1.00
15959;DHT22;8078;47.822;9.402;2024-01-15T01:49:25;-2.20;1.00
15959;DHT22;8078;47.822;9.402;2024-01-15T01:51:51;-2.30;1.00
15959;DHT22;8078;47.822;9.402;2024-01-15T01:54:18;-2.50;1.00
15959;DHT22;8078;47.822;9.402;2024-01-15T01:56:45;-2.60;1.00
15959;DHT22;8078;47.822;9.402;2024-01-15T01:59:11;-2.70;1.00
15959;DHT22;8078;47.822;9.402;2024-01-15T02:01:37;-2.80;1.00
15959;DHT22;8078;47.822;9.402;2024-01-15T02:04:04;-2.90;1.00
15959;DHT22;8078;47.822;9.402;2024-01-15T02:06:29;-2.90;1.00
15959;DHT22;8078;47.822;9.402;2024-01-15T02:08:55;-2.80;1.00
15959;DHT22;8078;47.822;9.402;2024-01-15T02:11:21;-2.80;1.00
15959;DHT22;8078;47.822;9.402;2024-01-15T02:13:47;-2.80;1.00
15959;DHT22;8078;47.822;9.402;2024-01-15T02:16:13;-2.80;1.00
15959;DHT22;8078;47.822;9.402;2024-01-15T02:18:42;-2.70;1.00
15959;DHT22;8078;47.822;9.402;2024-01-15T02:21:09;-2.70;1.00
15959;DHT22;8078;47.822;9.402;2024-01-15T02:23:35;-2.60;1.00
15959;DHT22;8078;47.822;9.402;2024-01-15T02:26:01;-2.60;1.00
15959;DHT22;8078;47.822;9.402;2024-01-15T02:28:26;-2.60;1.00
15959;DHT22;8078;47.822;9.402;2024-01-15T02:30:52;-2.60;1.00
15959;DHT22;8078;47.822;9.402;2024-01-15T02:33:18;-2.60;1.00
15959;DHT22;8078;47.822;9.402;2024-01-15T02:35:43;-2.60;1.00
15959;DHT22;8078;47.822;9.402;2024-01-15T02:38:09;-2.50;1.00
15959;DHT22;8078;47.822;9.402;2024-01-15T02:40:35;-2.50;1.00
15959;DHT22;8078;47.822;9.402;2024-01-15T02:43:00;-2.50;1.00
15959;DHT22;8078;47.822;9.402;2024-01-15T02:45:27;-2.60;1.00
15959;DHT22;8078;47.822;9.402;2024-01-15T02:47:52;-2.60;1.00
15959;DHT22;8078;47.822;9.402;2024-01-15T02:50:18;-2.60;1.00
15959;DHT22;8078;47.822;9.402;2024-01-15T02:52:44;-2.60;1.00
15959;DHT22;8078;47.822;9.402;2024-01-15T02:55:09;-2.70;1.00
15959;DHT22;8078;47.822;9.402;2024-01-15T02:57:35;-2.70;1.00
15959;DHT22;8078;47.822;9.402;2024-01-15T03:00:00;-2.80;1.00
15959;DHT22;8078;47.822;9.402;2024-01-15T03:02:26;-2.90;1.00
15959;DHT22;8078;47.822;9.402;2024-01-15T03:04:52;-2.80;1.00
15959;DHT22;8078;47.822;9.402;2024-01-15T03:07:18;-2.80;1.00
15959;DHT22;8078;47.822;9.402;2024-01-15T03:09:43;-2.80;1.00
15959;DHT22;8078;47.822;9.402;2024-01-15T03:12:09;-2.80;1.00
15959;DHT22;8078;47.822;9.402;2024-01-15T03:14:38;-2.80;1.00
15959;DHT22;8078;47.822;9.402;2024-01-15T03:17:03;-2.80;1.00
15959;DHT22;8078;47.822;9.402;2024-01-15T03:19:29;-2.80;1.00
15959;DHT22;8078;47.822;9.402;2024-01-15T03:21:56;-2.80;1.00
15959;DHT22;8078;47.822;9.402;2024-01-15T03:24:22;-2.80;1.00
15959;DHT22;8078;47.822;9.402;2024-01-15T03:26:47;-2.70;1.00
15959;DHT22;8078;47.822;9.402;2024-01-15T03:29:13;-2.70;1.00
15959;DHT22;8078;47.822;9.402;2024-01-15T03:31:38;-2.70;1.00
15959;DHT22;8078;47.822;9.402;2024-01-15T03:34:04;-2.70;1.00
15959;DHT22;8078;47.822;9.402;2024-01-15T03:36:29;-2.70;1.00
15959;DHT22;8078;47.822;9.402;2024-01-15T03:38:55;-2.70;1.00
15959;DHT22;8078;47.822;9.402;2024-01-15T03:41:20;-2.70;1.00
15959;DHT22;8078;47.822;9.402;2024-01-15T03:43:46;-2.70;1.00
15959;DHT22;8078;47.822;9.402;2024-01-15T03:46:11;-2.80;1.00
15959;DHT22;8078;47.822;9.402;2024-01-15T03:48:37;-2.70;1.00
15959;DHT22;8078;47.822;9.402;2024-01-15T03:51:03;-2.70;1.00
15959;DHT22;8078;47.822;9.402;2024-01-15T03:53:29;-2.70;1.00
15959;DHT22;8078;47.822;9.402;2024-01-15T03:55:55;-2.60;1.00
15959;DHT22;8078;47.822;9.402;2024-01-15T03:58:20;-2.60;1.00
15959;DHT22;8078;47.822;9.402;2024-01-15T04:00:46;-2.70;1.00
15959;DHT22;8078;47.822;9.402;2024-01-15T04:03:11;-2.60;1.00
15959;DHT22;8078;47.822;9.402;2024-01-15T04:05:38;-2.60;1.00
15959;DHT22;8078;47.822;9.402;2024-01-15T04:08:04;-2.70;1.00
15959;DHT22;8078;47.822;9.402;2024-01-15T04:10:30;-2.70;1.00
15959;DHT22;8078;47.822;9.402;2024-01-15T04:12:55;-2.60;1.00
15959;DHT22;8078;47.822;9.402;2024-01-15T04:15:21;-2.60;1.00
15959;DHT22;8078;47.822;9.402;2024-01-15T04:17:46;-2.60;1.00
15959;DHT22;8078;47.822;9.402;2024-01-15T04:20:12;-2.60;1.00
15959;DHT22;8078;47.822;9.402;2024-01-15T04:22:37;-2.60;1.00
15959;DHT22;8078;47.822;9.402;2024-01-15T04:25:03;-2.60;1.00
15959;DHT22;8078;47.822;9.402;2024-01-15T04:27:29;-2.50;1.00
15959;DHT22;8078;47.822;9.402;2024-01-15T04:29:55;-2.60;1.00
15959;DHT22;8078;47.822;9.402;2024-01-15T04:32:20;-2.50;1.00
15959;DHT22;8078;47.822;9.402;2024-01-15T04:34:46;-2.50;1.00
15959;DHT22;8078;47.822;9.402;2024-01-15T04:37:13;-2.50;1.00
15959;DHT22;8078;47.822;9.402;2024-01-15T04:39:38;-2.50;1.00
15959;DHT22;8078;47.822;9.402;2024-01-15T04:42:04;-2.50;1.00
15959;DHT22;8078;47.822;9.402;2024-01-15T04:44:29;-2.50;1.00
15959;DHT22;8078;47.822;9.402;2024-01-15T04:46:55;-2.50;1.00
15959;DHT22;8078;47.822;9.402;2024-01-15T04:49:21;-2.50;1.00
15959;DHT22;8078;47.822;9.402;2024-01-15T04:51:46;-2.50;1.00
15959;DHT22;8078;47.822;9.402;2024-01-15T04:54:12;-2.50;1.00
15959;DHT22;8078;47.822;9.402;2024-01-15T04:56:38;-2.50;1.00
15959;DHT22;8078;47.822;9.402;2024-01-15T04:59:03;-2.50;1.00
15959;DHT22;8078;47.822;9.402;2024-01-15T05:01:33;-2.50;1.00
15959;DHT22;8078;47.822;9.402;2024-01-15T05:03:58;-2.50;1.00
15959;DHT22;8078;47.822;9.402;2024-01-15T05:06:24;-2.50;1.00
15959;DHT22;8078;47.822;9.402;2024-01-15T05:08:51;-2.50;1.00
15959;DHT22;8078;47.822;9.402;2024-01-15T05:11:17;-2.40;1.00
15959;DHT22;8078;47.822;9.402;2024-01-15T05:13:42;-2.50;1.00
15959;DHT22;8078;47.822;9.402;2024-01-15T05:16:08;-2.50;1.00
15959;DHT22;8078;47.822;9.402;2024-01-15T05:18:33;-2.50;1.00
15959;DHT22;8078;47.822;9.402;2024-01-15T05:20:59;-2.60;1.00
15959;DHT22;8078;47.822;9.402;2024-01-15T05:23:25;-2.60;1.00
15959;DHT22;8078;47.822;9.402;2024-01-15T05:25:50;-2.60;1.00
15959;DHT22;8078;47.822;9.402;2024-01-15T05:28:16;-2.60;1.00
15959;DHT22;8078;47.822;9.402;2024-01-15T05:30:41;-2.60;1.00
15959;DHT22;8078;47.822;9.402;2024-01-15T05:33:07;-2.60;1.00
15959;DHT22;8078;47.822;9.402;2024-01-15T05:35:33;-2.60;1.00
15959;DHT22;8078;47.822;9.402;2024-01-15T05:37:59;-2.60;1.00
15959;DHT22;8078;47.822;9.402;2024-01-15T05:40:24;-2.60;1.00
15959;DHT22;8078;47.822;9.402;2024-01-15T05:42:50;-2.60;1.00
15959;DHT22;8078;47.822;9.402;2024-01-15T05:45:16;-2.70;1.00
15959;DHT22;8078;47.822;9.402;2024-01-15T05:47:41;-2.60;1.00
15959;DHT22;8078;47.822;9.402;2024-01-15T05:50:08;-2.60;1.00
15959;DHT22;8078;47.822;9.402;2024-01-15T05:52:33;-2.60;1.00
15959;DHT22;8078;47.822;9.402;2024-01-15T05:54:59;-2.70;1.00
15959;DHT22;8078;47.822;9.402;2024-01-15T05:57:24;-2.70;1.00
15959;DHT22;8078;47.822;9.402;2024-01-15T05:59:50;-2.70;1.00
15959;DHT22;8078;47.822;9.402;2024-01-15T06:02:16;-2.70;1.00
15959;DHT22;8078;47.822;9.402;2024-01-15T06:04:41;-2.70;1.00
15959;DHT22;8078;47.822;9.402;2024-01-15T06:07:07;-2.70;1.00
15959;DHT22;8078;47.822;9.402;2024-01-15T06:09:32;-2.60;1.00
15959;DHT22;8078;47.822;9.402;2024-01-15T06:11:58;-2.70;1.00
15959;DHT22;8078;47.822;9.402;2024-01-15T06:14:24;-2.60;1.00
15959;DHT22;8078;47.822;9.402;2024-01-15T06:16:49;-2.60;1.00
15959;DHT22;8078;47.822;9.402;2024-01-15T06:19:15;-2.50;1.00
15959;DHT22;8078;47.822;9.402;2024-01-15T06:21:40;-2.50;1.00
15959;DHT22;8078;47.822;9.402;2024-01-15T06:24:06;-2.50;1.00
15959;DHT22;8078;47.822;9.402;2024-01-15T06:26:32;-2.50;1.00
15959;DHT22;8078;47.822;9.402;2024-01-15T06:28:57;-2.60;1.00
15959;DHT22;8078;47.822;9.402;2024-01-15T06:31:23;-2.60;1.00
15959;DHT22;8078;47.822;9.402;2024-01-15T06:33:48;-2.70;1.00
15959;DHT22;8078;47.822;9.402;2024-01-15T06:36:14;-2.80;1.00
15959;DHT22;8078;47.822;9.402;2024-01-15T06:38:42;-2.70;1.00
15959;DHT22;8078;47.822;9.402;2024-01-15T06:41:08;-2.70;1.00
15959;DHT22;8078;47.822;9.402;2024-01-15T06:43:33;-2.70;1.00
15959;DHT22;8078;47.822;9.402;2024-01-15T06:45:59;-2.70;1.00
15959;DHT22;8078;47.822;9.402;2024-01-15T06:48:25;-2.70;1.00
15959;DHT22;8078;47.822;9.402;2024-01-15T06:50:50;-2.70;1.00
15959;DHT22;8078;47.822;9.402;2024-01-15T06:53:16;-2.70;1.00
15959;DHT22;8078;47.822;9.402;2024-01-15T06:55:42;-2.70;1.00
15959;DHT22;8078;47.822;9.402;2024-01-15T06:58:07;-2.70;1.00
15959;DHT22;8078;47.822;9.402;2024-01-15T07:00:33;-2.70;1.00
15959;DHT22;8078;47.822;9.402;2024-01-15T07:02:58;-2.70;1.00
15959;DHT22;8078;47.822;9.402;2024-01-15T07:05:24;-2.60;1.00
15959;DHT22;8078;47.822;9.402;2024-01-15T07:07:50;-2.60;1.00
15959;DHT22;8078;47.822;9.402;2024-01-15T07:10:16;-2.60;1.00
15959;DHT22;8078;47.822;9.402;2024-01-15T07:12:42;-2.60;1.00
15959;DHT22;8078;47.822;9.402;2024-01-15T07:15:08;-2.60;1.00
15959;DHT22;8078;47.822;9.402;2024-01-15T07:17:34;-2.60;1.00
15959;DHT22;8078;47.822;9.402;2024-01-15T07:20:00;-2.60;1.00
15959;DHT22;8078;47.822;9.402;2024-01-15T07:22:25;-2.60;1.00
15959;DHT22;8078;47.822;9.402;2024-01-15T07:24:51;-2.60;1.00
15959;DHT22;8078;47.822;9.402;2024-01-15T07:27:17;-2.70;1.00
15959;DHT22;8078;47.822;9.402;2024-01-15T07:29:42;-2.60;1.00
15959;DHT22;8078;47.822;9.402;2024-01-15T07:32:08;-2.70;1.00
15959;DHT22;8078;47.822;9.402;2024-01-15T07:34:34;-2.70;1.00
15959;DHT22;8078;47.822;9.402;2024-01-15T07:37:00;-2.70;1.00
15959;DHT22;8078;47.822;9.402;2024-01-15T07:39:25;-2.70;1.00
15959;DHT22;8078;47.822;9.402;2024-01-15T07:41:51;-2.60;1.00
15959;DHT22;8078;47.822;9.402;2024-01-15T07:44:17;-2.60;1.00
15959;DHT22;8078;47.822;9.402;2024-01-15T07:46:46;-2.60;1.00
15959;DHT22;8078;47.822;9.402;2024-01-15T07:49:12;-2.60;1.00
15959;DHT22;8078;47.822;9.402;2024-01-15T07:51:38;-2.60;1.00
15959;DHT22;8078;47.822;9.402;2024-01-15T07:54:06;-2.70;1.00
15959;DHT22;8078;47.822;9.402;2024-01-15T07:56:32;-2.60;1.00
15959;DHT22;8078;47.822;9.402;2024-01-15T07:58:57;-2.70;1.00
15959;DHT22;8078;47.822;9.402;2024-01-15T08:01:24;-2.70;1.00
15959;DHT22;8078;47.822;9.402;2024-01-15T08:03:49;-2.60;1.00
15959;DHT22;8078;47.822;9.402;2024-01-15T08:06:15;-2.60;1.00
15959;DHT22;8078;47.822;9.402;2024-01-15T08:08:41;-2.60;1.00
15959;DHT22;8078;47.822;9.402;2024-01-15T08:11:07;-2.60;1.00
15959;DHT22;8078;47.822;9.402;2024-01-15T08:13:32;-2.50;1.00
15959;DHT22;8078;47.822;9.402;2024-01-15T08:15:58;-2.60;1.00
15959;DHT22;8078;47.822;9.402;2024-01-15T08:18:23;-2.60;1.00
15959;DHT22;8078;47.822;9.402;2024-01-15T08:20:49;-2.60;1.00
15959;DHT22;8078;47.822;9.402;2024-01-15T08:23:16;-2.60;1.00
15959;DHT22;8078;47.822;9.402;2024-01-15T08:25:42;-2.70;1.00
15959;DHT22;8078;47.822;9.402;2024-01-15T08:28:08;-2.70;1.00
15959;DHT22;8078;47.822;9.402;2024-01-15T08:30:34;-2.60;1.00
15959;DHT22;8078;47.822;9.402;2024-01-15T08:33:00;-2.60;1.00
15959;DHT22;8078;47.822;9.402;2024-01-15T08:35:26;-2.50;1.00
15959;DHT22;8078;47.822;9.402;2024-01-15T08:37:52;-2.50;1.00
15959;DHT22;8078;47.822;9.402;2024-01-15T08:40:18;-2.50;1.00
15959;DHT22;8078;47.822;9.402;2024-01-15T08:42:44;-2.50;1.00
15959;DHT22;8078;47.822;9.402;2024-01-15T08:45:11;-2.60;1.00
15959;DHT22;8078;47.822;9.402;2024-01-15T08:47:36;-2.50;1.00
15959;DHT22;8078;47.822;9.402;2024-01-15T08:50:03;-2.50;1.00
15959;DHT22;8078;47.822;9.402;2024-01-15T08:52:29;-2.50;1.00
15959;DHT22;8078;47.822;9.402;2024-01-15T08:54:56;-2.50;1.00
15959;DHT22;8078;47.822;9.402;2024-01-15T08:57:21;-2.50;1.00
15959;DHT22;8078;47.822;9.402;2024-01-15T08:59:47;-2.50;1.00
15959;DHT22;8078;47.822;9.402;2024-01-15T09:02:13;-2.50;1.00
15959;DHT22;8078;47.822;9.402;2024-01-15T09:04:38;-2.50;1.00
15959;DHT22;8078;47.822;9.402;2024-01-15T09:07:04;-2.50;1.00
15959;DHT22;8078;47.822;9.402;2024-01-15T09:09:30;-2.40;1.00
15959;DHT22;8078;47.822;9.402;2024-01-15T09:11:55;-2.40;1.00
15959;DHT22;8078;47.822;9.402;2024-01-15T09:14:21;-2.30;1.00
15959;DHT22;8078;47.822;9.402;2024-01-15T09:16:47;-2.30;1.00
15959;DHT22;8078;47.822;9.402;2024-01-15T09:19:13;-2.30;1.00
15959;DHT22;8078;47.822;9.402;2024-01-15T09:21:39;-2.30;1.00
15959;DHT22;8078;47.822;9.402;2024-01-15T09:24:05;-2.40;1.00
15959;DHT22;8078;47.822;9.402;2024-01-15T09:26:31;-2.40;1.00
15959;DHT22;8078;47.822;9.402;2024-01-15T09:28:57;-2.30;1.00
15959;DHT22;8078;47.822;9.402;2024-01-15T09:31:23;-2.30;1.00
15959;DHT22;8078;47.822;9.402;2024-01-15T09:33:49;-2.30;1.00
15959;DHT22;8078;47.822;9.402;2024-01-15T09:36:18;-2.20;1.00
15959;DHT22;8078;47.822;9.402;2024-01-15T09:38:44;-2.30;1.00
15959;DHT22;8078;47.822;9.402;2024-01-15T09:41:10;-2.30;1.00
15959;DHT22;8078;47.822;9.402;2024-01-15T09:43:37;-2.30;1.00
15959;DHT22;8078;47.822;9.402;2024-01-15T09:46:03;-2.30;1.00
15959;DHT22;8078;47.822;9.402;2024-01-15T09:48:29;-2.40;1.00
15959;DHT22;8078;47.822;9.402;2024-01-15T09:50:56;-2.50;1.00
15959;DHT22;8078;47.822;9.402;2024-01-15T09:53:23;-2.50;1.00
15959;DHT22;8078;47.822;9.402;2024-01-15T09:55:50;-2.60;1.00
15959;DHT22;8078;47.822;9.402;2024-01-15T09:58:16;-2.60;1.00
15959;DHT22;8078;47.822;9.402;2024-01-15T10:00:42;-2.60;1.00
15959;DHT22;8078;47.822;9.402;2024-01-15T10:03:09;-2.60;1.00
15959;DHT22;8078;47.822;9.402;2024-01-15T10:05:37;-2.60;1.00
15959;DHT22;8078;47.822;9.402;2024-01-15T10:08:03;-2.60;1.00
15959;DHT22;8078;47.822;9.402;2024-01-15T10:10:29;-2.50;1.00
15959;DHT22;8078;47.822;9.402;2024-01-15T10:12:55;-2.50;1.00
15959;DHT22;8078;47.822;9.402;2024-01-15T10:15:26;-2.60;1.00
15959;DHT22;8078;47.822;9.402;2024-01-15T10:17:51;-2.60;1.00
15959;DHT22;8078;47.822;9.402;2024-01-15T10:20:17;-2.60;1.00
15959;DHT22;8078;47.822;9.402;2024-01-15T10:22:44;-2.60;1.00
15959;DHT22;8078;47.822;9.402;2024-01-15T10:25:13;-2.50;1.00
15959;DHT22;8078;47.822;9.402;2024-01-15T10:27:40;-2.40;1.00
15959;DHT22;8078;47.822;9.402;2024-01-15T10:30:08;-2.40;1.00
15959;DHT22;8078;47.822;9.402;2024-01-15T10:32:34;-2.30;1.00
15959;DHT22;8078;47.822;9.402;2024-01-15T10:34:59;-2.30;1.00
15959;DHT22;8078;47.822;9.402;2024-01-15T10:37:25;-2.30;1.00
15959;DHT22;8078;47.822;9.402;2024-01-15T10:39:52;-2.20;1.00
15959;DHT22;8078;47.822;9.402;2024-01-15T10:42:18;-2.30;1.00
15959;DHT22;8078;47.822;9.402;2024-01-15T10:44:44;-2.30;1.00
15959;DHT22;8078;47.822;9.402;2024-01-15T10:47:12;-2.30;1.00
15959;DHT22;8078;47.822;9.402;2024-01-15T10:49:39;-2.20;1.00
15959;DHT22;8078;47.822;9.402;2024-01-15T10:52:05;-2.20;1.00
15959;DHT22;8078;47.822;9.402;2024-01-15T10:54:32;-2.20;1.00
15959;DHT22;8078;47.822;9.402;2024-01-15T10:56:58;-2.20;1.00
15959;DHT22;8078;47.822;9.402;2024-01-15T10:59:24;-2.20;1.00
15959;DHT22;8078;47.822;9.402;2024-01-15T11:01:51;-2.20;1.00
15959;DHT22;8078;47.822;9.402;2024-01-15T11:04:20;-1.90;1.00
15959;DHT22;8078;47.822;9.402;2024-01-15T11:06:51;-1.80;1.00
15959;DHT22;8078;47.822;9.402;2024-01-15T11:09:17;-1.40;1.00
15959;DHT22;8078;47.822;9.402;2024-01-15T11:11:45;-1.50;1.00
15959;DHT22;8078;47.822;9.402;2024-01-15T11:14:41;-1.40;1.00
15959;DHT22;8078;47.822;9.402;2024-01-15T11:17:09;-1.20;1.00
15959;DHT22;8078;47.822;9.402;2024-01-15T11:19:42;-1.20;1.00
15959;DHT22;8078;47.822;9.402;2024-01-15T11:22:10;-1.00;1.00
15959;DHT22;8078;47.822;9.402;2024-01-15T11:24:38;-1.10;1.00
15959;DHT22;8078;47.822;9.402;2024-01-15T11:27:05;-1.10;1.00
15959;DHT22;8078;47.822;9.402;2024-01-15T11:29:33;-1.30;1.00
15959;DHT22;8078;47.822;9.402;2024-01-15T11:32:09;-1.30;1.00
15959;DHT22;8078;47.822;9.402;2024-01-15T11:35:01;-1.10;1.00
15959;DHT22;8078;47.822;9.402;2024-01-15T11:37:29;-1.20;1.00
15959;DHT22;8078;47.822;9.402;2024-01-15T11:40:21;-0.90;1.00
15959;DHT22;8078;47.822;9.402;2024-01-15T11:42:47;-0.90;1.00
15959;DHT22;8078;47.822;9.402;2024-01-15T11:45:14;-1.20;1.00
15959;DHT22;8078;47.822;9.402;2024-01-15T11:50:14;-1.00;1.00
15959;DHT22;8078;47.822;9.402;2024-01-15T11:52:46;-1.00;1.00
15959;DHT22;8078;47.822;9.402;2024-01-15T11:55:36;-1.00;1.00
15959;DHT22;8078;47.822;9.402;2024-01-15T11:58:08;-1.00;1.00
15959;DHT22;8078;47.822;9.402;2024-01-15T12:00:34;-1.20;1.00
15959;DHT22;8078;47.822;9.402;2024-01-15T12:03:05;-1.00;1.00
15959;DHT22;8078;47.822;9.402;2024-01-15T12:05:30;-0.90;1.00
15959;DHT22;8078;47.822;9.402;2024-01-15T12:07:56;-0.70;1.00
15959;DHT22;8078;47.822;9.402;2024-01-15T12:10:22;-0.90;1.00
15959;DHT22;8078;47.822;9.402;2024-01-15T12:12:56;-0.80;1.00
15959;DHT22;8078;47.822;9.402;2024-01-15T12:15:23;-0.60;1.00
15959;DHT22;8078;47.822;9.402;2024-01-15T12:17:49;-0.60;1.00
15959;DHT22;8078;47.822;9.402;2024-01-15T12:20:15;-0.70;1.00
15959;DHT22;8078;47.822;9.402;2024-01-15T12:22:41;-0.80;1.00
15959;DHT22;8078;47.822;9.402;2024-01-15T12:25:07;-0.90;1.00
15959;DHT22;8078;47.822;9.402;2024-01-15T12:27:33;-0.80;1.00
15959;DHT22;8078;47.822;9.402;2024-01-15T12:29:59;-0.50;1.00
15959;DHT22;8078;47.822;9.402;2024-01-15T12:32:25;-0.80;1.00
15959;DHT22;8078;47.822;9.402;2024-01-15T12:34:50;-1.10;1.00
15959;DHT22;8078;47.822;9.402;2024-01-15T12:37:19;-1.40;1.00
15959;DHT22;8078;47.822;9.402;2024-01-15T12:39:46;-1.60;1.00
15959;DHT22;8078;47.822;9.402;2024-01-15T12:42:11;-1.60;1.00
15959;DHT22;8078;47.822;9.402;2024-01-15T12:44:38;-1.50;1.00
15959;DHT22;8078;47.822;9.402;2024-01-15T12:47:05;-1.40;1.00
15959;DHT22;8078;47.822;9.402;2024-01-15T12:49:31;-1.30;1.00
15959;DHT22;8078;47.822;9.402;2024-01-15T12:51:57;-1.30;1.00
15959;DHT22;8078;47.822;9.402;2024-01-15T12:54:23;-1.40;1.00
15959;DHT22;8078;47.822;9.402;2024-01-15T12:56:51;-1.40;1.00
15959;DHT22;8078;47.822;9.402;2024-01-15T12:59:18;-1.40;1.00
15959;DHT22;8078;47.822;9.402;2024-01-15T13:01:44;-1.40;1.00
15959;DHT22;8078;47.822;9.402;2024-01-15T13:04:10;-1.30;1.00
15959;DHT22;8078;47.822;9.402;2024-01-15T13:06:36;-1.20;1.00
15959;DHT22;8078;47.822;9.402;2024-01-15T13:09:03;-1.20;1.00
15959;DHT22;8078;47.822;9.402;2024-01-15T13:11:31;-1.20;1.00
15959;DHT22;8078;47.822;9.402;2024-01-15T13:13:57;-1.20;1.00
15959;DHT22;8078;47.822;9.402;2024-01-15T13:16:22;-1.10;1.00
15959;DHT22;8078;47.822;9.402;2024-01-15T13:18:48;-1.00;1.00
15959;DHT22;8078;47.822;9.402;2024-01-15T13:21:15;-0.90;1.00
15959;DHT22;8078;47.822;9.402;2024-01-15T13:23:41;-0.90;1.00
15959;DHT22;8078;47.822;9.402;2024-01-15T13:26:06;-1.00;1.00
15959;DHT22;8078;47.822;9.402;2024-01-15T13:28:32;-0.90;1.00
15959;DHT22;8078;47.822;9.402;2024-01-15T13:30:58;-0.80;1.00
15959;DHT22;8078;47.822;9.402;2024-01-15T13:33:23;-0.90;1.00
15959;DHT22;8078;47.822;9.402;2024-01-15T13:35:49;-0.90;1.00
15959;DHT22;8078;47.822;9.402;2024-01-15T13:38:16;-0.90;1.00
15959;DHT22;8078;47.822;9.402;2024-01-15T13:40:41;-0.90;1.00
15959;DHT22;8078;47.822;9.402;2024-01-15T13:43:07;-0.90;1.00
15959;DHT22;8078;47.822;9.402;2024-01-15T13:45:34;-0.80;1.00
15959;DHT22;8078;47.822;9.402;2024-01-15T13:48:01;-0.80;1.00
15959;DHT22;8078;47.822;9.402;2024-01-15T13:50:26;-0.80;1.00
15959;DHT22;8078;47.822;9.402;2024-01-15T13:52:52;-0.80;1.00
15959;DHT22;8078;47.822;9.402;2024-01-15T13:55:19;-0.80;1.00
15959;DHT22;8078;47.822;9.402;2024-01-15T13:57:45;-0.80;1.00
15959;DHT22;8078;47.822;9.402;2024-01-15T14:00:11;-0.80;1.00
15959;DHT22;8078;47.822;9.402;2024-01-15T14:02:37;-0.80;1.00
15959;DHT22;8078;47.822;9.402;2024-01-15T14:05:03;-0.80;1.00
15959;DHT22;8078;47.822;9.402;2024-01-15T14:07:29;-0.80;1.00
15959;DHT22;8078;47.822;9.402;2024-01-15T14:09:54;-0.80;1.00
15959;DHT22;8078;47.822;9.402;2024-01-15T14:12:20;-0.80;1.00
15959;DHT22;8078;47.822;9.402;2024-01-15T14:14:45;-0.80;1.00
15959;DHT22;8078;47.822;9.402;2024-01-15T14:17:11;-0.80;1.00
15959;DHT22;8078;47.822;9.402;2024-01-15T14:19:36;-0.70;1.00
15959;DHT22;8078;47.822;9.402;2024-01-15T14:22:02;-0.70;1.00
15959;DHT22;8078;47.822;9.402;2024-01-15T14:24:28;-0.80;1.00
15959;DHT22;8078;47.822;9.402;2024-01-15T14:26:54;-0.70;1.00
15959;DHT22;8078;47.822;9.402;2024-01-15T14:29:19;-0.70;1.00
15959;DHT22;8078;47.822;9.402;2024-01-15T14:31:47;-0.80;1.00
15959;DHT22;8078;47.822;9.402;2024-01-15T14:34:13;-0.80;1.00
15959;DHT22;8078;47.822;9.402;2024-01-15T14:36:38;-0.80;1.00
15959;DHT22;8078;47.822;9.402;2024-01-15T14:39:04;-0.80;1.00
15959;DHT22;8078;47.822;9.402;2024-01-15T14:41:30;-0.80;1.00
15959;DHT22;8078;47.822;9.402;2024-01-15T14:43:55;-0.80;1.00
15959;DHT22;8078;47.822;9.402;2024-01-15T14:46:22;-0.80;1.00
15959;DHT22;8078;47.822;9.402;2024-01-15T14:48:48;-0.70;1.00
15959;DHT22;8078;47.822;9.402;2024-01-15T14:51:14;-0.70;1.00
15959;DHT22;8078;47.822;9.402;2024-01-15T14:53:39;-0.70;1.00
15959;DHT22;8078;47.822;9.402;2024-01-15T14:56:05;-0.70;1.00
15959;DHT22;8078;47.822;9.402;2024-01-15T14:58:30;-0.70;1.00
15959;DHT22;8078;47.822;9.402;2024-01-15T15:00:58;-0.80;1.00
15959;DHT22;8078;47.822;9.402;2024-01-15T15:03:23;-0.70;1.00
15959;DHT22;8078;47.822;9.402;2024-01-15T15:05:49;-0.80;1.00
15959;DHT22;8078;47.822;9.402;2024-01-15T15:08:15;-0.80;1.00
15959;DHT22;8078;47.822;9.402;2024-01-15T15:10:40;-0.80;1.00
15959;DHT22;8078;47.822;9.402;2024-01-15T15:13:06;-0.80;1.00
15959;DHT22;8078;47.822;9.402;2024-01-15T15:15:32;-0.80;1.00
15959;DHT22;8078;47.822;9.402;2024-01-15T15:17:58;-0.80;1.00
15959;DHT22;8078;47.822;9.402;2024-01-15T15:20:23;-0.80;1.00
15959;DHT22;8078;47.822;9.402;2024-01-15T15:22:49;-0.80;1.00
15959;DHT22;8078;47.822;9.402;2024-01-15T15:25:14;-0.80;1.00
15959;DHT22;8078;47.822;9.402;2024-01-15T15:27:40;-0.80;1.00
15959;DHT22;8078;47.822;9.402;2024-01-15T15:30:07;-0.90;1.00
15959;DHT22;8078;47.822;9.402;2024-01-15T15:32:32;-0.90;1.00
15959;DHT22;8078;47.822;9.402;2024-01-15T15:34:58;-0.90;1.00
15959;DHT22;8078;47.822;9.402;2024-01-15T15:37:24;-0.90;1.00
15959;DHT22;8078;47.822;9.402;2024-01-15T15:39:49;-0.90;1.00
15959;DHT22;8078;47.822;9.402;2024-01-15T15:42:15;-0.90;1.00
15959;DHT22;8078;47.822;9.402;2024-01-15T15:44:40;-0.90;1.00
15959;DHT22;8078;47.822;9.402;2024-01-15T15:47:12;-1.00;1.00
15959;DHT22;8078;47.822;9.402;2024-01-15T15:49:40;-1.00;1.00
15959;DHT22;8078;47.822;9.402;2024-01-15T15:52:05;-1.00;1.00
15959;DHT22;8078;47.822;9.402;2024-01-15T15:54:31;-1.00;1.00
15959;DHT22;8078;47.822;9.402;2024-01-15T15:56:56;-1.00;1.00
15959;DHT22;8078;47.822;9.402;2024-01-15T15:59:22;-1.00;1.00